sensor_id;sensor_type;location;lat;lon;timestamp;pressure;altitude;pressure_sealevel;temperature;humidity
78198;BME280;67472;51.554;7.812;2024-02-26T00:02:22;99134.41;;;4.72;100.00
78198;BME280;67472;51.554;7.812;2024-02-26T00:05:08;99137.13;;;4.70;100.00
78198;BME280;67472;51.554;7.812;2024-02-26T00:07:56;99128.41;;;4.60;100.00
78198;BME280;67472;51.554;7.812;2024-02-26T00:10:45;99132.69;;;4.61;100.00
78198;BME280;67472;51.554;7.812;2024-02-26T00:13:31;99128.09;;;4.74;100.00
78198;BME280;67472;51.554;7.812;2024-02-26T00:16:17;99119.81;;;4.90;100.00
78198;BME280;67472;51.554;7.812;2024-02-26T00:19:03;99116.03;;;4.83;100.00
78198;BME280;67472;51.554;7.812;2024-02-26T00:21:50;99122.09;;;4.83;100.00
78198;BME280;67472;51.554;7.812;2024-02-26T00:24:40;99125.66;;;4.82;100.00
78198;BME280;67472;51.554;7.812;2024-02-26T00:27:28;99119.88;;;4.79;100.00
78198;BME280;67472;51.554;7.812;2024-02-26T00:30:14;99113.66;;;4.80;100.00
78198;BME280;67472;51.554;7.812;2024-02-26T00:33:03;99114.91;;;4.76;100.00
78198;BME280;67472;51.554;7.812;2024-02-26T00:35:51;99105.81;;;4.80;100.00
78198;BME280;67472;51.554;7.812;2024-02-26T00:38:38;99104.97;;;4.70;100.00
78198;BME280;67472;51.554;7.812;2024-02-26T00:41:25;99104.50;;;4.65;100.00
78198;BME280;67472;51.554;7.812;2024-02-26T00:44:15;99108.19;;;4.83;100.00
78198;BME280;67472;51.554;7.812;2024-02-26T00:47:01;99105.50;;;4.73;100.00
78198;BME280;67472;51.554;7.812;2024-02-26T00:49:48;99102.44;;;4.89;100.00
78198;BME280;67472;51.554;7.812;2024-02-26T00:52:34;99098.91;;;4.99;100.00
78198;BME280;67472;51.554;7.812;2024-02-26T00:55:22;99093.59;;;5.10;100.00
78198;BME280;67472;51.554;7.812;2024-02-26T00:58:09;99094.97;;;5.14;100.00
78198;BME280;67472;51.554;7.812;2024-02-26T01:00:57;99095.56;;;5.18;100.00
78198;BME280;67472;51.554;7.812;2024-02-26T01:03:44;99091.94;;;5.09;100.00
78198;BME280;67472;51.554;7.812;2024-02-26T01:06:36;99084.97;;;5.29;100.00
78198;BME280;67472;51.554;7.812;2024-02-26T01:09:22;99086.50;;;5.22;100.00
78198;BME280;67472;51.554;7.812;2024-02-26T01:12:11;99075.75;;;5.25;100.00
78198;BME280;67472;51.554;7.812;2024-02-26T01:15:00;99070.41;;;5.36;100.00
78198;BME280;67472;51.554;7.812;2024-02-26T01:17:48;99069.16;;;5.40;100.00
78198;BME280;67472;51.554;7.812;2024-02-26T01:20:34;99068.63;;;5.37;100.00
78198;BME280;67472;51.554;7.812;2024-02-26T01:23:21;99052.34;;;5.43;100.00
78198;BME280;67472;51.554;7.812;2024-02-26T01:26:08;99051.13;;;5.47;100.00
78198;BME280;67472;51.554;7.812;2024-02-26T01:28:55;99052.66;;;5.49;100.00
78198;BME280;67472;51.554;7.812;2024-02-26T01:31:42;99057.78;;;5.51;100.00
78198;BME280;67472;51.554;7.812;2024-02-26T01:34:30;99055.56;;;5.56;100.00
78198;BME280;67472;51.554;7.812;2024-02-26T01:37:16;99056.69;;;5.53;100.00
78198;BME280;67472;51.554;7.812;2024-02-26T01:40:03;99044.25;;;5.55;100.00
78198;BME280;67472;51.554;7.812;2024-02-26T01:42:52;99050.47;;;5.64;100.00
78198;BME280;67472;51.554;7.812;2024-02-26T01:45:39;99055.28;;;5.49;100.00
78198;BME280;67472;51.554;7.812;2024-02-26T01:48:25;99060.13;;;5.54;100.00
78198;BME280;67472;51.554;7.812;2024-02-26T01:51:14;99060.81;;;5.56;100.00
78198;BME280;67472;51.554;7.812;2024-02-26T01:54:03;99066.13;;;5.35;100.00
78198;BME280;67472;51.554;7.812;2024-02-26T01:56:49;99069.16;;;5.31;100.00
78198;BME280;67472;51.554;7.812;2024-02-26T01:59:36;99069.69;;;5.34;100.00
78198;BME280;67472;51.554;7.812;2024-02-26T02:02:23;99077.31;;;5.47;100.00
78198;BME280;67472;51.554;7.812;2024-02-26T02:05:10;99077.34;;;5.56;100.00
78198;BME280;67472;51.554;7.812;2024-02-26T02:07:59;99078.88;;;5.59;100.00
78198;BME280;67472;51.554;7.812;2024-02-26T02:10:49;99074.19;;;5.62;100.00
78198;BME280;67472;51.554;7.812;2024-02-26T02:13:35;99072.28;;;5.74;100.00
78198;BME280;67472;51.554;7.812;2024-02-26T02:16:21;99068.44;;;5.68;100.00
78198;BME280;67472;51.554;7.812;2024-02-26T02:19:07;99068.25;;;5.60;100.00
78198;BME280;67472;51.554;7.812;2024-02-26T02:21:55;99070.16;;;5.49;100.00
78198;BME280;67472;51.554;7.812;2024-02-26T02:24:41;99068.97;;;5.62;100.00
78198;BME280;67472;51.554;7.812;2024-02-26T02:27:28;99069.34;;;5.58;100.00
78198;BME280;67472;51.554;7.812;2024-02-26T02:30:16;99065.09;;;5.57;100.00
78198;BME280;67472;51.554;7.812;2024-02-26T02:33:03;99066.88;;;5.56;100.00
78198;BME280;67472;51.554;7.812;2024-02-26T02:35:49;99067.72;;;5.66;100.00
78198;BME280;67472;51.554;7.812;2024-02-26T02:38:48;99065.66;;;5.70;100.00
78198;BME280;67472;51.554;7.812;2024-02-26T02:41:35;99069.63;;;5.55;100.00
78198;BME280;67472;51.554;7.812;2024-02-26T02:44:22;99064.78;;;5.50;100.00
78198;BME280;67472;51.554;7.812;2024-02-26T02:47:10;99074.41;;;5.40;100.00
78198;BME280;67472;51.554;7.812;2024-02-26T02:49:57;99080.34;;;5.42;100.00
78198;BME280;67472;51.554;7.812;2024-02-26T02:52:43;99088.75;;;5.46;100.00
78198;BME280;67472;51.554;7.812;2024-02-26T02:55:31;99087.78;;;5.47;100.00
78198;BME280;67472;51.554;7.812;2024-02-26T02:58:17;99091.22;;;5.38;100.00
78198;BME280;67472;51.554;7.812;2024-02-26T03:01:03;99093.31;;;5.44;100.00
78198;BME280;67472;51.554;7.812;2024-02-26T03:03:49;99100.88;;;5.47;100.00
78198;BME280;67472;51.554;7.812;2024-02-26T03:06:36;99095.94;;;5.53;100.00
78198;BME280;67472;51.554;7.812;2024-02-26T03:09:22;99097.59;;;5.54;100.00
78198;BME280;67472;51.554;7.812;2024-02-26T03:12:11;99095.13;;;5.53;100.00
78198;BME280;67472;51.554;7.812;2024-02-26T03:14:57;99099.41;;;5.54;100.00
78198;BME280;67472;51.554;7.812;2024-02-26T03:17:45;99103.38;;;5.48;100.00
78198;BME280;67472;51.554;7.812;2024-02-26T03:20:32;99116.34;;;5.50;100.00
78198;BME280;67472;51.554;7.812;2024-02-26T03:23:18;99122.00;;;5.55;100.00
78198;BME280;67472;51.554;7.812;2024-02-26T03:26:05;99121.47;;;5.51;100.00
78198;BME280;67472;51.554;7.812;2024-02-26T03:28:55;99126.44;;;5.64;100.00
78198;BME280;67472;51.554;7.812;2024-02-26T03:31:41;99126.13;;;5.57;100.00
78198;BME280;67472;51.554;7.812;2024-02-26T03:34:27;99123.56;;;5.67;100.00
78198;BME280;67472;51.554;7.812;2024-02-26T03:37:15;99125.59;;;5.63;100.00
78198;BME280;67472;51.554;7.812;2024-02-26T03:40:01;99131.00;;;5.62;100.00
78198;BME280;67472;51.554;7.812;2024-02-26T03:42:47;99136.50;;;5.59;100.00
78198;BME280;67472;51.554;7.812;2024-02-26T03:45:35;99142.56;;;5.69;100.00
78198;BME280;67472;51.554;7.812;2024-02-26T03:48:23;99134.03;;;5.67;100.00
78198;BME280;67472;51.554;7.812;2024-02-26T03:51:10;99129.69;;;5.87;100.00
78198;BME280;67472;51.554;7.812;2024-02-26T03:53:56;99129.56;;;5.88;100.00
78198;BME280;67472;51.554;7.812;2024-02-26T03:56:43;99130.66;;;5.86;100.00
78198;BME280;67472;51.554;7.812;2024-02-26T03:59:29;99128.88;;;5.86;100.00
78198;BME280;67472;51.554;7.812;2024-02-26T04:02:17;99132.59;;;5.93;100.00
78198;BME280;67472;51.554;7.812;2024-02-26T04:05:04;99136.44;;;5.89;100.00
78198;BME280;67472;51.554;7.812;2024-02-26T04:07:51;99139.78;;;5.91;100.00
78198;BME280;67472;51.554;7.812;2024-02-26T04:10:37;99137.50;;;5.77;100.00
78198;BME280;67472;51.554;7.812;2024-02-26T04:13:24;99147.16;;;5.77;100.00
78198;BME280;67472;51.554;7.812;2024-02-26T04:16:11;99131.72;;;5.74;100.00
78198;BME280;67472;51.554;7.812;2024-02-26T04:18:59;99140.56;;;5.82;100.00
78198;BME280;67472;51.554;7.812;2024-02-26T04:21:47;99137.31;;;5.69;100.00
78198;BME280;67472;51.554;7.812;2024-02-26T04:24:35;99134.50;;;5.42;100.00
78198;BME280;67472;51.554;7.812;2024-02-26T04:27:22;99129.00;;;5.45;100.00
78198;BME280;67472;51.554;7.812;2024-02-26T04:30:09;99125.50;;;5.35;100.00
78198;BME280;67472;51.554;7.812;2024-02-26T04:32:56;99124.19;;;5.20;100.00
78198;BME280;67472;51.554;7.812;2024-02-26T04:35:44;99124.50;;;5.17;100.00
78198;BME280;67472;51.554;7.812;2024-02-26T04:38:30;99129.44;;;5.20;100.00
78198;BME280;67472;51.554;7.812;2024-02-26T04:41:17;99110.31;;;5.19;100.00
78198;BME280;67472;51.554;7.812;2024-02-26T04:44:03;99129.13;;;5.43;100.00
78198;BME280;67472;51.554;7.812;2024-02-26T04:46:51;99130.81;;;5.54;100.00
78198;BME280;67472;51.554;7.812;2024-02-26T04:49:37;99121.69;;;5.39;100.00
78198;BME280;67472;51.554;7.812;2024-02-26T04:52:25;99121.84;;;5.47;100.00
78198;BME280;67472;51.554;7.812;2024-02-26T04:55:11;99116.56;;;5.37;100.00
78198;BME280;67472;51.554;7.812;2024-02-26T04:57:58;99109.28;;;5.41;100.00
78198;BME280;67472;51.554;7.812;2024-02-26T05:00:45;99107.50;;;5.41;100.00
78198;BME280;67472;51.554;7.812;2024-02-26T05:03:32;99104.88;;;5.41;100.00
78198;BME280;67472;51.554;7.812;2024-02-26T05:06:18;99117.44;;;5.47;100.00
78198;BME280;67472;51.554;7.812;2024-02-26T05:09:06;99133.06;;;5.78;100.00
78198;BME280;67472;51.554;7.812;2024-02-26T05:11:53;99134.22;;;5.85;100.00
78198;BME280;67472;51.554;7.812;2024-02-26T05:14:39;99134.22;;;5.85;100.00
78198;BME280;67472;51.554;7.812;2024-02-26T05:17:25;99145.59;;;5.64;100.00
78198;BME280;67472;51.554;7.812;2024-02-26T05:20:13;99156.72;;;5.87;100.00
78198;BME280;67472;51.554;7.812;2024-02-26T05:23:01;99164.47;;;5.89;100.00
78198;BME280;67472;51.554;7.812;2024-02-26T05:25:50;99148.47;;;6.01;100.00
78198;BME280;67472;51.554;7.812;2024-02-26T05:28:36;99159.81;;;6.11;100.00
78198;BME280;67472;51.554;7.812;2024-02-26T05:31:24;99156.59;;;5.98;100.00
78198;BME280;67472;51.554;7.812;2024-02-26T05:34:10;99158.25;;;5.90;100.00
78198;BME280;67472;51.554;7.812;2024-02-26T05:36:58;99162.25;;;5.94;100.00
78198;BME280;67472;51.554;7.812;2024-02-26T05:39:44;99169.47;;;5.81;100.00
78198;BME280;67472;51.554;7.812;2024-02-26T05:42:35;99172.19;;;6.00;100.00
78198;BME280;67472;51.554;7.812;2024-02-26T05:45:21;99184.06;;;5.94;100.00
78198;BME280;67472;51.554;7.812;2024-02-26T05:48:07;99190.09;;;5.85;100.00
78198;BME280;67472;51.554;7.812;2024-02-26T05:50:54;99189.16;;;5.86;100.00
78198;BME280;67472;51.554;7.812;2024-02-26T05:53:41;99196.88;;;5.97;100.00
78198;BME280;67472;51.554;7.812;2024-02-26T05:56:27;99204.66;;;5.78;100.00
78198;BME280;67472;51.554;7.812;2024-02-26T05:59:16;99210.19;;;5.85;100.00
78198;BME280;67472;51.554;7.812;2024-02-26T06:02:13;99217.63;;;5.80;100.00
78198;BME280;67472;51.554;7.812;2024-02-26T06:05:00;99221.03;;;5.70;100.00
78198;BME280;67472;51.554;7.812;2024-02-26T06:07:46;99218.16;;;5.74;100.00
78198;BME280;67472;51.554;7.812;2024-02-26T06:10:33;99221.09;;;5.80;100.00
78198;BME280;67472;51.554;7.812;2024-02-26T06:13:20;99223.13;;;5.77;100.00
78198;BME280;67472;51.554;7.812;2024-02-26T06:16:09;99233.53;;;5.88;100.00
78198;BME280;67472;51.554;7.812;2024-02-26T06:18:55;99231.50;;;5.70;100.00
78198;BME280;67472;51.554;7.812;2024-02-26T06:21:43;99237.69;;;5.69;100.00
78198;BME280;67472;51.554;7.812;2024-02-26T06:24:29;99232.50;;;5.79;100.00
78198;BME280;67472;51.554;7.812;2024-02-26T06:27:17;99238.50;;;5.91;100.00
78198;BME280;67472;51.554;7.812;2024-02-26T06:30:05;99242.81;;;6.01;100.00
78198;BME280;67472;51.554;7.812;2024-02-26T06:32:53;99246.56;;;6.08;100.00
78198;BME280;67472;51.554;7.812;2024-02-26T06:35:39;99242.03;;;5.80;100.00
78198;BME280;67472;51.554;7.812;2024-02-26T06:38:25;99246.03;;;5.84;100.00
78198;BME280;67472;51.554;7.812;2024-02-26T06:41:11;99249.31;;;5.97;100.00
78198;BME280;67472;51.554;7.812;2024-02-26T06:43:57;99253.81;;;5.95;100.00
78198;BME280;67472;51.554;7.812;2024-02-26T06:46:43;99246.13;;;5.94;100.00
78198;BME280;67472;51.554;7.812;2024-02-26T06:49:31;99249.03;;;6.00;100.00
78198;BME280;67472;51.554;7.812;2024-02-26T06:52:18;99250.41;;;5.95;100.00
78198;BME280;67472;51.554;7.812;2024-02-26T06:55:05;99256.72;;;5.92;100.00
78198;BME280;67472;51.554;7.812;2024-02-26T06:57:53;99250.66;;;5.92;100.00
78198;BME280;67472;51.554;7.812;2024-02-26T07:00:40;99243.13;;;6.08;100.00
78198;BME280;67472;51.554;7.812;2024-02-26T07:03:26;99255.81;;;6.03;100.00
78198;BME280;67472;51.554;7.812;2024-02-26T07:06:13;99251.03;;;5.87;100.00
78198;BME280;67472;51.554;7.812;2024-02-26T07:09:00;99260.69;;;5.87;100.00
78198;BME280;67472;51.554;7.812;2024-02-26T07:11:46;99270.97;;;5.79;100.00
78198;BME280;67472;51.554;7.812;2024-02-26T07:14:32;99270.13;;;5.99;100.00
78198;BME280;67472;51.554;7.812;2024-02-26T07:17:18;99276.03;;;6.01;100.00
78198;BME280;67472;51.554;7.812;2024-02-26T07:20:05;99273.44;;;6.01;100.00
78198;BME280;67472;51.554;7.812;2024-02-26T07:22:53;99270.84;;;6.10;100.00
78198;BME280;67472;51.554;7.812;2024-02-26T07:25:40;99280.38;;;6.11;100.00
78198;BME280;67472;51.554;7.812;2024-02-26T07:28:27;99278.19;;;6.16;100.00
78198;BME280;67472;51.554;7.812;2024-02-26T07:31:13;99276.28;;;6.28;100.00
78198;BME280;67472;51.554;7.812;2024-02-26T07:33:59;99267.72;;;6.36;100.00
78198;BME280;67472;51.554;7.812;2024-02-26T07:36:45;99275.19;;;6.31;100.00
78198;BME280;67472;51.554;7.812;2024-02-26T07:39:33;99278.41;;;6.44;100.00
78198;BME280;67472;51.554;7.812;2024-02-26T07:42:20;99276.44;;;6.36;100.00
78198;BME280;67472;51.554;7.812;2024-02-26T07:45:06;99272.88;;;6.37;100.00
78198;BME280;67472;51.554;7.812;2024-02-26T07:47:53;99282.13;;;6.41;100.00
78198;BME280;67472;51.554;7.812;2024-02-26T07:50:39;99276.31;;;6.38;100.00
78198;BME280;67472;51.554;7.812;2024-02-26T07:53:26;99289.59;;;6.46;100.00
78198;BME280;67472;51.554;7.812;2024-02-26T07:56:14;99286.56;;;6.60;100.00
78198;BME280;67472;51.554;7.812;2024-02-26T07:59:01;99290.72;;;6.62;100.00
78198;BME280;67472;51.554;7.812;2024-02-26T08:01:50;99294.03;;;6.74;100.00
78198;BME280;67472;51.554;7.812;2024-02-26T08:04:37;99293.63;;;6.69;100.00
78198;BME280;67472;51.554;7.812;2024-02-26T08:07:23;99296.94;;;6.71;100.00
78198;BME280;67472;51.554;7.812;2024-02-26T08:10:10;99300.94;;;6.65;100.00
78198;BME280;67472;51.554;7.812;2024-02-26T08:12:58;99304.81;;;6.80;100.00
78198;BME280;67472;51.554;7.812;2024-02-26T08:15:49;99298.06;;;6.88;100.00
78198;BME280;67472;51.554;7.812;2024-02-26T08:18:36;99300.97;;;6.85;100.00
78198;BME280;67472;51.554;7.812;2024-02-26T08:21:22;99304.00;;;7.09;100.00
78198;BME280;67472;51.554;7.812;2024-02-26T08:24:09;99305.66;;;7.10;100.00
78198;BME280;67472;51.554;7.812;2024-02-26T08:26:57;99298.91;;;6.78;100.00
78198;BME280;67472;51.554;7.812;2024-02-26T08:29:45;99300.13;;;7.03;100.00
78198;BME280;67472;51.554;7.812;2024-02-26T08:32:32;99293.75;;;6.77;100.00
78198;BME280;67472;51.554;7.812;2024-02-26T08:35:19;99310.25;;;7.08;100.00
78198;BME280;67472;51.554;7.812;2024-02-26T08:38:05;99311.19;;;6.97;100.00
78198;BME280;67472;51.554;7.812;2024-02-26T08:40:52;99311.06;;;7.18;100.00
78198;BME280;67472;51.554;7.812;2024-02-26T08:43:38;99301.66;;;7.06;100.00
78198;BME280;67472;51.554;7.812;2024-02-26T08:46:26;99306.06;;;7.05;100.00
78198;BME280;67472;51.554;7.812;2024-02-26T08:49:12;99308.00;;;7.03;100.00
78198;BME280;67472;51.554;7.812;2024-02-26T08:51:59;99311.06;;;7.18;100.00
78198;BME280;67472;51.554;7.812;2024-02-26T08:54:45;99311.19;;;7.07;100.00
78198;BME280;67472;51.554;7.812;2024-02-26T08:57:33;99315.22;;;7.11;100.00
78198;BME280;67472;51.554;7.812;2024-02-26T09:00:20;99308.84;;;7.13;100.00
78198;BME280;67472;51.554;7.812;2024-02-26T09:03:08;99314.78;;;7.25;100.00
78198;BME280;67472;51.554;7.812;2024-02-26T09:05:55;99321.00;;;7.24;100.00
78198;BME280;67472;51.554;7.812;2024-02-26T09:08:41;99318.94;;;7.37;100.00
78198;BME280;67472;51.554;7.812;2024-02-26T09:11:29;99319.88;;;7.46;100.00
78198;BME280;67472;51.554;7.812;2024-02-26T09:14:15;99320.56;;;7.57;100.00
78198;BME280;67472;51.554;7.812;2024-02-26T09:17:02;99323.03;;;7.59;100.00
78198;BME280;67472;51.554;7.812;2024-02-26T09:19:50;99313.13;;;7.24;100.00
78198;BME280;67472;51.554;7.812;2024-02-26T09:22:36;99317.66;;;7.41;100.00
78198;BME280;67472;51.554;7.812;2024-02-26T09:25:25;99311.47;;;7.13;100.00
78198;BME280;67472;51.554;7.812;2024-02-26T09:28:12;99317.81;;;7.01;100.00
78198;BME280;67472;51.554;7.812;2024-02-26T09:31:01;99321.97;;;7.13;100.00
78198;BME280;67472;51.554;7.812;2024-02-26T09:33:47;99316.03;;;7.21;100.00
78198;BME280;67472;51.554;7.812;2024-02-26T09:36:36;99325.53;;;7.31;100.00
78198;BME280;67472;51.554;7.812;2024-02-26T09:39:22;99330.81;;;7.22;100.00
78198;BME280;67472;51.554;7.812;2024-02-26T09:42:09;99335.09;;;7.42;100.00
78198;BME280;67472;51.554;7.812;2024-02-26T09:45:00;99332.47;;;7.42;100.00
78198;BME280;67472;51.554;7.812;2024-02-26T09:47:48;99328.72;;;7.45;100.00
78198;BME280;67472;51.554;7.812;2024-02-26T09:50:35;99323.47;;;7.35;100.00
78198;BME280;67472;51.554;7.812;2024-02-26T09:53:23;99323.47;;;7.35;100.00
78198;BME280;67472;51.554;7.812;2024-02-26T09:56:09;99322.19;;;7.68;100.00
78198;BME280;67472;51.554;7.812;2024-02-26T09:58:57;99327.16;;;7.71;100.00
78198;BME280;67472;51.554;7.812;2024-02-26T10:01:46;99320.97;;;7.43;100.00
78198;BME280;67472;51.554;7.812;2024-02-26T10:04:34;99324.09;;;7.75;100.00
78198;BME280;67472;51.554;7.812;2024-02-26T10:07:21;99326.03;;;7.73;100.00
78198;BME280;67472;51.554;7.812;2024-02-26T10:10:09;99325.28;;;8.00;100.00
78198;BME280;67472;51.554;7.812;2024-02-26T10:12:55;99330.66;;;7.98;100.00
78198;BME280;67472;51.554;7.812;2024-02-26T10:15:41;99324.91;;;7.95;100.00
78198;BME280;67472;51.554;7.812;2024-02-26T10:18:44;99328.47;;;8.04;100.00
78198;BME280;67472;51.554;7.812;2024-02-26T10:21:32;99329.16;;;7.96;100.00
78198;BME280;67472;51.554;7.812;2024-02-26T10:24:18;99333.06;;;7.92;100.00
78198;BME280;67472;51.554;7.812;2024-02-26T10:27:06;99342.38;;;8.50;100.00
78198;BME280;67472;51.554;7.812;2024-02-26T10:29:56;99343.44;;;8.67;100.00
78198;BME280;67472;51.554;7.812;2024-02-26T10:32:43;99336.16;;;8.79;100.00
78198;BME280;67472;51.554;7.812;2024-02-26T10:35:30;99335.03;;;8.81;100.00
78198;BME280;67472;51.554;7.812;2024-02-26T10:38:18;99338.03;;;8.86;100.00
78198;BME280;67472;51.554;7.812;2024-02-26T10:41:05;99348.44;;;8.88;100.00
78198;BME280;67472;51.554;7.812;2024-02-26T10:43:54;99344.16;;;9.04;100.00
78198;BME280;67472;51.554;7.812;2024-02-26T10:46:42;99344.97;;;9.23;100.00
78198;BME280;67472;51.554;7.812;2024-02-26T10:49:29;99342.66;;;9.02;100.00
78198;BME280;67472;51.554;7.812;2024-02-26T10:52:18;99351.94;;;8.79;100.00
78198;BME280;67472;51.554;7.812;2024-02-26T10:55:05;99356.13;;;8.72;100.00
78198;BME280;67472;51.554;7.812;2024-02-26T10:57:52;99359.31;;;8.75;100.00
78198;BME280;67472;51.554;7.812;2024-02-26T11:00:41;99366.56;;;8.64;100.00
78198;BME280;67472;51.554;7.812;2024-02-26T11:03:29;99367.94;;;8.68;100.00
78198;BME280;67472;51.554;7.812;2024-02-26T11:06:20;99378.03;;;8.72;100.00
78198;BME280;67472;51.554;7.812;2024-02-26T11:09:08;99379.97;;;8.70;100.00
78198;BME280;67472;51.554;7.812;2024-02-26T11:11:58;99376.78;;;8.76;100.00
78198;BME280;67472;51.554;7.812;2024-02-26T11:14:46;99381.31;;;8.74;100.00
78198;BME280;67472;51.554;7.812;2024-02-26T11:17:35;99368.16;;;8.74;100.00
78198;BME280;67472;51.554;7.812;2024-02-26T11:20:23;99370.38;;;8.79;100.00
78198;BME280;67472;51.554;7.812;2024-02-26T11:23:11;99374.47;;;8.91;100.00
78198;BME280;67472;51.554;7.812;2024-02-26T11:25:58;99368.50;;;8.89;100.00
78198;BME280;67472;51.554;7.812;2024-02-26T11:28:46;99360.00;;;8.95;100.00
78198;BME280;67472;51.554;7.812;2024-02-26T11:31:33;99361.19;;;8.83;100.00
78198;BME280;67472;51.554;7.812;2024-02-26T11:34:24;99366.91;;;8.78;100.00
78198;BME280;67472;51.554;7.812;2024-02-26T11:37:11;99367.59;;;8.80;100.00
78198;BME280;67472;51.554;7.812;2024-02-26T11:39:59;99371.25;;;8.70;100.00
78198;BME280;67472;51.554;7.812;2024-02-26T11:42:47;99374.94;;;8.77;100.00
78198;BME280;67472;51.554;7.812;2024-02-26T11:45:56;99391.00;;;9.01;100.00
78198;BME280;67472;51.554;7.812;2024-02-26T11:48:45;99380.50;;;8.74;100.00
78198;BME280;67472;51.554;7.812;2024-02-26T11:51:34;99398.97;;;8.91;100.00
78198;BME280;67472;51.554;7.812;2024-02-26T11:57:40;99408.03;;;8.52;100.00
78198;BME280;67472;51.554;7.812;2024-02-26T12:00:26;99407.28;;;8.69;100.00
78198;BME280;67472;51.554;7.812;2024-02-26T12:03:18;99409.94;;;8.60;100.00
78198;BME280;67472;51.554;7.812;2024-02-26T12:06:06;99415.56;;;8.37;100.00
78198;BME280;67472;51.554;7.812;2024-02-26T12:08:54;99415.78;;;8.53;100.00
78198;BME280;67472;51.554;7.812;2024-02-26T12:11:41;99422.34;;;8.40;100.00
78198;BME280;67472;51.554;7.812;2024-02-26T12:14:28;99432.00;;;8.59;100.00
78198;BME280;67472;51.554;7.812;2024-02-26T12:17:20;99433.31;;;8.72;100.00
78198;BME280;67472;51.554;7.812;2024-02-26T12:20:10;99441.47;;;8.79;100.00
78198;BME280;67472;51.554;7.812;2024-02-26T12:22:57;99441.59;;;8.77;100.00
78198;BME280;67472;51.554;7.812;2024-02-26T12:25:45;99435.66;;;9.02;100.00
78198;BME280;67472;51.554;7.812;2024-02-26T12:28:33;99441.63;;;8.95;100.00
78198;BME280;67472;51.554;7.812;2024-02-26T12:31:19;99445.28;;;9.12;100.00
78198;BME280;67472;51.554;7.812;2024-02-26T12:34:07;99451.50;;;8.93;100.00
78198;BME280;67472;51.554;7.812;2024-02-26T12:36:54;99453.00;;;8.95;100.00
78198;BME280;67472;51.554;7.812;2024-02-26T12:39:41;99456.56;;;8.77;100.00
78198;BME280;67472;51.554;7.812;2024-02-26T12:42:29;99453.13;;;8.94;100.00
78198;BME280;67472;51.554;7.812;2024-02-26T12:45:18;99450.16;;;9.06;100.00
78198;BME280;67472;51.554;7.812;2024-02-26T12:48:06;99454.63;;;8.79;100.00
78198;BME280;67472;51.554;7.812;2024-02-26T12:50:54;99459.75;;;8.71;100.00
78198;BME280;67472;51.554;7.812;2024-02-26T12:53:43;99465.16;;;8.79;100.00
78198;BME280;67472;51.554;7.812;2024-02-26T12:56:30;99466.44;;;8.65;100.00
78198;BME280;67472;51.554;7.812;2024-02-26T12:59:19;99464.31;;;8.78;100.00
78198;BME280;67472;51.554;7.812;2024-02-26T13:02:05;99459.59;;;8.82;100.00
78198;BME280;67472;51.554;7.812;2024-02-26T13:04:53;99449.56;;;8.85;100.00
78198;BME280;67472;51.554;7.812;2024-02-26T13:07:41;99449.19;;;8.80;100.00
78198;BME280;67472;51.554;7.812;2024-02-26T13:10:28;99449.78;;;8.74;100.00
78198;BME280;67472;51.554;7.812;2024-02-26T13:13:16;99457.31;;;8.96;100.00
78198;BME280;67472;51.554;7.812;2024-02-26T13:16:06;99471.09;;;9.08;100.00
78198;BME280;67472;51.554;7.812;2024-02-26T13:18:53;99474.06;;;8.95;100.00
78198;BME280;67472;51.554;7.812;2024-02-26T13:21:39;99473.91;;;8.97;100.00
78198;BME280;67472;51.554;7.812;2024-02-26T13:24:26;99480.81;;;9.07;100.00
78198;BME280;67472;51.554;7.812;2024-02-26T13:27:12;99476.06;;;8.84;100.00
78198;BME280;67472;51.554;7.812;2024-02-26T13:30:09;99470.38;;;9.16;100.00
78198;BME280;67472;51.554;7.812;2024-02-26T13:33:07;99468.94;;;9.21;100.00
78198;BME280;67472;51.554;7.812;2024-02-26T13:35:55;99468.91;;;9.03;100.00
78198;BME280;67472;51.554;7.812;2024-02-26T13:38:51;99480.16;;;9.23;100.00
78198;BME280;67472;51.554;7.812;2024-02-26T13:41:37;99481.28;;;9.21;100.00
78198;BME280;67472;51.554;7.812;2024-02-26T13:44:24;99478.09;;;9.17;100.00
78198;BME280;67472;51.554;7.812;2024-02-26T13:47:09;99486.13;;;8.98;100.00
78198;BME280;67472;51.554;7.812;2024-02-26T13:49:57;99491.53;;;8.96;100.00
78198;BME280;67472;51.554;7.812;2024-02-26T13:52:44;99492.81;;;8.92;100.00
78198;BME280;67472;51.554;7.812;2024-02-26T13:55:30;99497.69;;;8.87;100.00
78198;BME280;67472;51.554;7.812;2024-02-26T13:58:17;99504.94;;;9.03;100.00
78198;BME280;67472;51.554;7.812;2024-02-26T14:01:07;99502.13;;;9.14;100.00
78198;BME280;67472;51.554;7.812;2024-02-26T14:03:57;99496.25;;;9.20;100.00
78198;BME280;67472;51.554;7.812;2024-02-26T14:06:44;99509.91;;;9.06;100.00
78198;BME280;67472;51.554;7.812;2024-02-26T14:09:31;99512.69;;;9.14;100.00
78198;BME280;67472;51.554;7.812;2024-02-26T14:12:18;99518.66;;;9.06;100.00
78198;BME280;67472;51.554;7.812;2024-02-26T14:15:07;99518.56;;;9.26;100.00
78198;BME280;67472;51.554;7.812;2024-02-26T14:17:59;99515.28;;;8.87;100.00
78198;BME280;67472;51.554;7.812;2024-02-26T14:20:47;99521.38;;;8.87;100.00
78198;BME280;67472;51.554;7.812;2024-02-26T14:23:35;99524.50;;;9.00;100.00
78198;BME280;67472;51.554;7.812;2024-02-26T14:26:22;99525.56;;;8.80;100.00
78198;BME280;67472;51.554;7.812;2024-02-26T14:29:08;99532.13;;;8.94;100.00
78198;BME280;67472;51.554;7.812;2024-02-26T14:31:54;99536.69;;;9.01;100.00
78198;BME280;67472;51.554;7.812;2024-02-26T14:34:41;99533.44;;;8.80;100.00
78198;BME280;67472;51.554;7.812;2024-02-26T14:37:29;99543.78;;;8.91;100.00
78198;BME280;67472;51.554;7.812;2024-02-26T14:40:17;99543.84;;;8.82;100.00
78198;BME280;67472;51.554;7.812;2024-02-26T14:43:04;99532.88;;;8.86;100.00
78198;BME280;67472;51.554;7.812;2024-02-26T14:45:52;99544.88;;;9.08;100.00
78198;BME280;67472;51.554;7.812;2024-02-26T14:48:40;99539.00;;;8.77;100.00
78198;BME280;67472;51.554;7.812;2024-02-26T14:51:27;99544.53;;;8.74;100.00